Time;durP1;ratioP1;P1;durP2;ratioP2;P2;SDS_P1;SDS_P2;PMS_P1;PMS_P2;Temp;Humidity;BMP_temperature;BMP_pressure;BME280_temperature;BME280_humidity;BME280_pressure;Samples;Min_cycle;Max_cycle;Signal;HPM_P1;HPM_P2
2023/01/06 00:02:10;;;;;;;11.90;7.03;;;5.70;99.90;;;;;;5027865;28;20275;-74
2023/01/06 00:04:35;;;;;;;4.23;2.20;;;5.80;99.90;;;;;;5024789;28;20669;-69
2023/01/06 00:07:00;;;;;;;22.97;12.53;;;5.90;99.90;;;;;;5024570;28;20206;-83
2023/01/06 00:09:26;;;;;;;39.10;24.40;;;5.90;99.90;;;;;;5029584;28;20203;-70
2023/01/06 00:11:52;;;;;;;67.37;37.40;;;5.90;99.90;;;;;;5028010;28;20579;-72
2023/01/06 00:14:17;;;;;;;23.47;14.97;;;6.00;99.90;;;;;;5025340;28;20578;-70
2023/01/06 00:16:43;;;;;;;25.33;17.77;;;6.00;99.90;;;;;;5026731;28;20249;-76
2023/01/06 00:19:09;;;;;;;22.23;11.27;;;6.00;99.90;;;;;;5030088;28;20666;-72
2023/01/06 00:21:35;;;;;;;17.03;9.23;;;6.10;99.90;;;;;;5018746;28;20220;-69
2023/01/06 00:24:00;;;;;;;8.23;4.93;;;6.10;99.90;;;;;;5022126;28;20195;-63
2023/01/06 00:26:26;;;;;;;15.70;9.63;;;6.10;99.90;;;;;;5019809;28;20298;-77
2023/01/06 00:28:55;;;;;;;6.23;4.50;;;6.10;99.90;;;;;;5022910;28;20191;-72
2023/01/06 00:31:21;;;;;;;3.83;1.83;;;6.00;99.90;;;;;;5026587;28;20536;-63
2023/01/06 00:33:47;;;;;;;2.07;1.60;;;6.00;99.90;;;;;;5024888;28;20852;-69
2023/01/06 00:36:13;;;;;;;4.60;2.37;;;6.00;99.90;;;;;;5010959;28;20207;-65
2023/01/06 00:38:39;;;;;;;5.90;2.77;;;6.00;99.90;;;;;;5015242;28;20791;-66
2023/01/06 00:42:02;;;;;;;12.63;7.77;;;5.90;99.90;;;;;;5015739;28;20262;-65
2023/01/06 00:43:53;;;;;;;9.10;4.20;;;5.90;99.90;;;;;;5019663;28;20644;-65
2023/01/06 00:46:18;;;;;;;9.50;5.13;;;5.90;99.90;;;;;;5015969;28;20200;-66
2023/01/06 00:48:44;;;;;;;7.17;2.63;;;5.90;99.90;;;;;;5014099;28;20198;-65
2023/01/06 00:51:09;;;;;;;3.10;2.13;;;5.80;99.90;;;;;;5006979;28;20222;-65
2023/01/06 00:53:35;;;;;;;3.17;1.90;;;5.70;99.90;;;;;;5008253;28;20199;-66
2023/01/06 00:56:01;;;;;;;10.33;6.40;;;5.70;99.90;;;;;;5012619;28;20681;-66
2023/01/06 00:58:30;;;;;;;5.77;4.20;;;5.70;99.90;;;;;;5018831;28;20207;-68
2023/01/06 01:00:56;;;;;;;4.73;3.27;;;5.70;99.90;;;;;;5019941;28;20574;-67
2023/01/06 01:03:21;;;;;;;6.30;2.63;;;5.70;99.90;;;;;;5018039;28;20204;-60
2023/01/06 01:05:47;;;;;;;4.97;3.07;;;5.70;99.90;;;;;;5013784;28;20203;-61
2023/01/06 01:08:12;;;;;;;4.67;2.40;;;5.90;99.90;;;;;;5025778;28;20206;-62
2023/01/06 01:10:37;;;;;;;3.87;1.73;;;5.90;99.90;;;;;;5028622;28;20196;-64
2023/01/06 01:13:03;;;;;;;1.93;1.50;;;5.80;99.90;;;;;;5027864;28;20200;-63
2023/01/06 01:15:29;;;;;;;2.80;1.53;;;5.80;99.90;;;;;;5027883;28;20230;-65
2023/01/06 01:17:55;;;;;;;4.17;2.33;;;5.80;99.90;;;;;;5027494;28;20256;-65
2023/01/06 01:20:20;;;;;;;2.67;2.17;;;5.80;99.90;;;;;;5030262;28;20211;-64
2023/01/06 01:22:46;;;;;;;2.10;1.90;;;5.80;99.90;;;;;;5035293;28;20578;-64
2023/01/06 01:25:11;;;;;;;3.03;1.60;;;5.70;99.90;;;;;;5036245;28;20198;-64
2023/01/06 01:27:36;;;;;;;3.83;1.97;;;5.80;99.90;;;;;;5037109;28;20294;-64
2023/01/06 01:30:03;;;;;;;3.83;2.13;;;5.80;99.90;;;;;;5037556;28;20728;-62
2023/01/06 01:32:28;;;;;;;3.57;2.23;;;5.80;99.90;;;;;;5028338;28;20238;-63
2023/01/06 01:34:53;;;;;;;3.33;2.30;;;5.70;99.90;;;;;;5032314;28;20199;-60
2023/01/06 01:37:19;;;;;;;4.63;1.87;;;5.80;99.90;;;;;;5036779;28;20231;-62
2023/01/06 01:39:44;;;;;;;3.93;2.13;;;5.80;99.90;;;;;;5036144;28;20195;-61
2023/01/06 01:42:17;;;;;;;2.60;1.90;;;5.80;99.90;;;;;;5036524;28;20301;-60
2023/01/06 01:44:45;;;;;;;1.80;1.70;;;5.80;99.90;;;;;;5034742;28;20673;-62
2023/01/06 01:47:18;;;;;;;5.00;3.23;;;5.80;99.90;;;;;;5035684;28;20607;-62
2023/01/06 01:49:46;;;;;;;3.40;1.67;;;5.90;99.90;;;;;;5036812;28;20210;-62
2023/01/06 01:52:13;;;;;;;4.10;1.50;;;5.90;99.90;;;;;;5036530;28;20206;-64
2023/01/06 01:54:40;;;;;;;3.87;1.80;;;5.90;99.90;;;;;;5034684;28;20628;-65
2023/01/06 01:57:11;;;;;;;2.20;1.60;;;5.80;99.90;;;;;;5034972;28;20532;-64
2023/01/06 01:59:39;;;;;;;4.30;1.70;;;5.80;99.90;;;;;;5025162;28;20206;-58
2023/01/06 02:02:04;;;;;;;4.93;1.80;;;5.90;99.90;;;;;;5005638;28;20214;-57
2023/01/06 02:04:34;;;;;;;6.60;2.17;;;5.90;99.90;;;;;;5003256;28;20615;-56
2023/01/06 02:07:00;;;;;;;1.93;1.30;;;6.00;99.90;;;;;;5005569;28;20199;-57
2023/01/06 02:09:46;;;;;;;2.10;1.70;;;5.90;99.90;;;;;;5008360;28;20200;-58
2023/01/06 02:12:11;;;;;;;2.90;1.33;;;6.00;99.90;;;;;;5013499;28;20203;-59
2023/01/06 02:14:37;;;;;;;2.30;1.23;;;5.90;99.90;;;;;;5006903;28;20196;-58
2023/01/06 02:17:21;;;;;;;2.33;1.37;;;6.00;99.90;;;;;;5015424;28;20982;-58
2023/01/06 02:20:05;;;;;;;2.83;0.93;;;6.00;99.90;;;;;;5016184;28;20500;-61
2023/01/06 02:22:54;;;;;;;5.67;1.73;;;5.90;99.90;;;;;;5015652;28;20226;-61
2023/01/06 02:25:44;;;;;;;1.57;1.20;;;5.90;99.90;;;;;;5003214;28;20302;-59
2023/01/06 02:28:45;;;;;;;10.20;2.13;;;5.90;99.90;;;;;;5012473;28;20208;-60
2023/01/06 02:31:48;;;;;;;5.20;1.17;;;5.90;99.90;;;;;;5003399;28;20676;-59
2023/01/06 02:34:30;;;;;;;5.10;1.83;;;5.80;99.90;;;;;;5007183;28;20211;-61
2023/01/06 02:37:17;;;;;;;2.60;1.30;;;5.80;99.90;;;;;;5018032;28;20257;-59
2023/01/06 02:39:54;;;;;;;3.67;1.50;;;5.80;99.90;;;;;;5024954;28;20203;-58
2023/01/06 02:42:53;;;;;;;4.83;3.00;;;5.80;99.90;;;;;;5022390;28;20238;-58
2023/01/06 02:45:44;;;;;;;4.63;1.77;;;5.80;99.90;;;;;;5027863;28;20195;-58
2023/01/06 02:48:33;;;;;;;5.90;2.70;;;5.90;99.90;;;;;;5026075;28;20207;-57
2023/01/06 02:51:18;;;;;;;5.07;1.50;;;5.90;99.90;;;;;;5033152;28;20338;-57
2023/01/06 02:54:03;;;;;;;1.73;1.63;;;6.00;99.90;;;;;;5036671;28;20567;-57
2023/01/06 02:56:36;;;;;;;3.30;1.77;;;6.00;99.90;;;;;;5021770;28;20207;-59
2023/01/06 02:59:07;;;;;;;3.83;2.27;;;6.00;99.90;;;;;;5024332;28;20691;-58
2023/01/06 03:01:39;;;;;;;6.30;1.90;;;6.00;99.90;;;;;;5026207;28;20301;-57
2023/01/06 03:04:10;;;;;;;3.30;1.63;;;6.00;99.90;;;;;;5026181;28;20261;-57
2023/01/06 03:06:43;;;;;;;2.03;1.50;;;6.00;99.90;;;;;;5024448;28;20202;-56
2023/01/06 03:09:10;;;;;;;2.67;1.60;;;6.10;99.90;;;;;;5026495;28;20257;-58
2023/01/06 03:11:37;;;;;;;1.27;1.03;;;6.00;99.90;;;;;;5025428;28;20209;-57
2023/01/06 03:14:26;;;;;;;1.67;1.10;;;6.10;99.90;;;;;;5026501;28;20269;-57
2023/01/06 03:16:53;;;;;;;7.10;1.50;;;6.10;99.90;;;;;;5023713;28;20289;-57
2023/01/06 03:19:18;;;;;;;3.63;1.37;;;6.10;99.90;;;;;;5025783;28;20569;-58
2023/01/06 03:21:46;;;;;;;4.10;1.43;;;6.10;99.90;;;;;;5024452;28;20681;-57
2023/01/06 03:24:13;;;;;;;2.70;1.20;;;6.10;99.90;;;;;;5026484;28;20196;-57
2023/01/06 03:26:39;;;;;;;1.07;1.00;;;6.10;99.90;;;;;;5026595;28;20661;-57
2023/01/06 03:29:08;;;;;;;0.97;0.90;;;6.10;99.90;;;;;;5026246;28;20202;-58
2023/01/06 03:32:00;;;;;;;2.13;1.50;;;6.10;99.90;;;;;;5026068;28;20191;-58
2023/01/06 03:34:42;;;;;;;1.13;1.00;;;6.10;99.90;;;;;;5027240;28;20214;-58
2023/01/06 03:37:26;;;;;;;4.20;1.47;;;6.00;99.90;;;;;;5033954;28;21152;-58
2023/01/06 03:40:06;;;;;;;1.73;1.50;;;6.10;99.90;;;;;;5022033;28;20205;-57
2023/01/06 03:45:31;;;;;;;3.23;1.73;;;6.10;99.90;;;;;;5033009;28;20617;-59
2023/01/06 03:48:21;;;;;;;3.83;1.43;;;6.10;99.90;;;;;;5035182;28;20210;-57
2023/01/06 03:50:59;;;;;;;2.43;1.17;;;6.00;99.90;;;;;;5032770;28;20199;-59
2023/01/06 03:53:33;;;;;;;3.23;1.33;;;6.00;99.90;;;;;;5039191;28;20205;-59
2023/01/06 03:56:27;;;;;;;2.30;2.07;;;6.00;99.90;;;;;;5037241;28;20202;-56
2023/01/06 03:58:55;;;;;;;2.20;0.90;;;6.10;99.90;;;;;;5038647;28;20205;-60
2023/01/06 04:01:25;;;;;;;2.47;1.30;;;6.10;99.90;;;;;;5038927;28;20227;-58
2023/01/06 04:03:51;;;;;;;2.73;1.03;;;6.10;99.90;;;;;;5039283;28;20281;-59
2023/01/06 04:06:17;;;;;;;3.17;1.30;;;6.10;99.90;;;;;;5028042;28;20674;-58
2023/01/06 04:08:42;;;;;;;3.47;0.90;;;6.00;99.90;;;;;;5026586;28;20240;-58
2023/01/06 04:12:37;;;;;;;0.90;0.90;;;6.00;99.90;;;;;;5038572;28;20194;-58
2023/01/06 04:13:53;;;;;;;3.33;1.43;;;6.10;99.90;;;;;;5038918;28;20218;-58
2023/01/06 04:16:19;;;;;;;2.33;1.13;;;6.00;99.90;;;;;;5032365;28;20299;-57
2023/01/06 04:18:45;;;;;;;3.53;1.57;;;6.00;99.90;;;;;;5039120;28;20422;-58
2023/01/06 04:21:11;;;;;;;6.30;3.30;;;6.00;99.90;;;;;;5038475;28;20653;-59
2023/01/06 04:23:36;;;;;;;4.57;2.07;;;6.00;99.90;;;;;;5038776;28;20624;-58
2023/01/06 04:26:02;;;;;;;6.03;1.80;;;6.00;99.90;;;;;;5038878;28;20755;-58
2023/01/06 04:28:27;;;;;;;1.57;1.20;;;6.10;99.90;;;;;;5038276;28;20227;-60
2023/01/06 04:31:00;;;;;;;6.00;2.30;;;6.10;99.90;;;;;;5037184;28;20238;-58
2023/01/06 04:33:26;;;;;;;2.87;1.70;;;6.10;99.90;;;;;;5038450;28;20209;-58
2023/01/06 04:35:51;;;;;;;3.97;1.50;;;6.10;99.90;;;;;;5038617;28;20199;-58
2023/01/06 04:38:16;;;;;;;4.23;2.17;;;6.10;99.90;;;;;;5038330;28;20590;-59
2023/01/06 04:40:42;;;;;;;1.27;1.17;;;6.10;99.90;;;;;;5037459;28;20235;-58
2023/01/06 04:43:13;;;;;;;2.27;2.00;;;6.10;99.90;;;;;;5038559;28;20328;-58
2023/01/06 04:45:39;;;;;;;3.03;1.87;;;6.10;99.90;;;;;;5038574;28;20776;-59
2023/01/06 04:48:06;;;;;;;5.90;3.07;;;6.10;99.90;;;;;;5038429;28;20199;-58
2023/01/06 04:50:31;;;;;;;2.87;1.67;;;6.10;99.90;;;;;;5038176;28;20328;-58
2023/01/06 04:52:57;;;;;;;3.67;2.53;;;6.10;99.90;;;;;;5031474;28;20218;-58
2023/01/06 04:55:23;;;;;;;4.13;1.53;;;6.10;99.90;;;;;;5038293;28;20202;-58
2023/01/06 04:57:49;;;;;;;2.27;1.60;;;6.10;99.90;;;;;;5037037;28;20215;-59
2023/01/06 05:00:15;;;;;;;2.30;2.07;;;6.10;99.90;;;;;;5037927;28;20210;-59
2023/01/06 05:02:40;;;;;;;3.80;1.53;;;6.00;99.90;;;;;;5037550;28;20242;-59
2023/01/06 05:05:06;;;;;;;2.40;1.40;;;6.00;99.90;;;;;;5033357;28;20206;-59
2023/01/06 05:07:32;;;;;;;3.00;1.23;;;6.10;99.90;;;;;;5036570;28;20207;-59
2023/01/06 05:09:57;;;;;;;2.00;1.50;;;6.00;99.90;;;;;;5034595;28;20225;-59
2023/01/06 05:12:23;;;;;;;5.63;2.10;;;6.00;99.90;;;;;;5035064;28;20203;-59
2023/01/06 05:14:48;;;;;;;2.07;1.93;;;6.00;99.90;;;;;;5037798;28;20195;-58
2023/01/06 05:17:13;;;;;;;3.80;1.23;;;6.10;99.90;;;;;;5038035;28;20241;-58
2023/01/06 05:19:41;;;;;;;3.50;2.10;;;6.00;99.90;;;;;;5032130;28;20211;-57
2023/01/06 05:22:07;;;;;;;2.93;1.70;;;6.00;99.90;;;;;;5027006;28;20211;-58
2023/01/06 05:24:32;;;;;;;2.80;1.60;;;6.10;99.90;;;;;;5027400;28;20763;-57
2023/01/06 05:26:58;;;;;;;6.83;2.30;;;6.10;99.90;;;;;;5027394;28;20188;-58
2023/01/06 05:29:24;;;;;;;3.77;2.13;;;6.10;99.90;;;;;;5026223;28;20199;-57
2023/01/06 05:31:49;;;;;;;4.37;2.47;;;6.10;99.90;;;;;;5024994;28;20290;-58
2023/01/06 05:34:14;;;;;;;4.00;2.40;;;6.10;99.90;;;;;;5028786;28;20226;-58
2023/01/06 05:36:40;;;;;;;3.10;2.03;;;6.10;99.90;;;;;;5036683;28;20199;-58
2023/01/06 05:39:05;;;;;;;6.73;2.47;;;6.20;99.90;;;;;;5034742;28;20207;-58
2023/01/06 05:41:31;;;;;;;6.37;2.30;;;6.20;99.90;;;;;;5034686;28;20227;-58
2023/01/06 05:43:56;;;;;;;2.90;1.43;;;6.20;99.90;;;;;;5037637;28;20221;-58
2023/01/06 05:46:22;;;;;;;4.30;2.50;;;6.20;99.90;;;;;;5036256;28;20207;-58
2023/01/06 05:48:47;;;;;;;3.97;2.37;;;6.20;99.90;;;;;;5018048;28;20230;-58
2023/01/06 05:51:15;;;;;;;2.77;1.80;;;6.20;99.90;;;;;;5037182;28;20724;-58
2023/01/06 05:53:42;;;;;;;4.20;2.53;;;6.20;99.90;;;;;;5037370;28;20203;-57
2023/01/06 05:56:10;;;;;;;3.70;2.13;;;6.30;99.90;;;;;;5032284;28;20233;-57
2023/01/06 05:58:39;;;;;;;5.03;2.83;;;6.30;99.90;;;;;;5034952;28;20203;-57
2023/01/06 06:01:05;;;;;;;3.63;1.77;;;6.30;99.90;;;;;;5037266;28;20214;-58
2023/01/06 06:03:31;;;;;;;5.33;2.23;;;6.30;99.90;;;;;;5036914;28;20231;-58
2023/01/06 06:06:04;;;;;;;3.33;2.00;;;6.30;99.90;;;;;;5032097;28;20218;-58
2023/01/06 06:08:30;;;;;;;3.03;1.90;;;6.30;99.90;;;;;;5028779;28;20269;-58
2023/01/06 06:11:00;;;;;;;4.77;3.87;;;6.30;99.90;;;;;;5036508;28;20710;-57
2023/01/06 06:13:25;;;;;;;8.53;6.17;;;6.30;99.90;;;;;;5036775;28;20218;-58
2023/01/06 06:15:51;;;;;;;6.90;3.50;;;6.30;99.90;;;;;;5037052;28;20191;-58
2023/01/06 06:18:17;;;;;;;2.63;2.43;;;6.30;99.90;;;;;;5036087;28;20215;-58
2023/01/06 06:20:42;;;;;;;4.00;2.50;;;6.40;99.90;;;;;;5035533;28;20280;-58
2023/01/06 06:23:08;;;;;;;4.93;2.37;;;6.30;99.90;;;;;;5035697;28;20202;-58
2023/01/06 06:25:33;;;;;;;5.90;2.63;;;6.40;99.90;;;;;;5031909;28;20664;-58
2023/01/06 06:27:59;;;;;;;11.00;3.23;;;6.40;99.90;;;;;;5035424;28;20284;-58
2023/01/06 06:30:24;;;;;;;4.53;2.40;;;6.40;99.90;;;;;;5036911;28;20282;-58
2023/01/06 06:32:50;;;;;;;5.73;3.13;;;6.30;99.90;;;;;;5036342;28;20947;-58
2023/01/06 06:35:15;;;;;;;3.93;2.20;;;6.30;99.90;;;;;;5034468;28;20566;-58
2023/01/06 06:37:41;;;;;;;4.17;2.47;;;6.30;99.90;;;;;;5036642;28;20199;-58
2023/01/06 06:40:07;;;;;;;3.80;2.80;;;6.30;99.90;;;;;;5036524;28;21195;-58
2023/01/06 06:42:32;;;;;;;4.47;3.07;;;6.30;99.90;;;;;;5036078;28;20650;-58
2023/01/06 06:44:58;;;;;;;5.80;3.93;;;6.30;99.90;;;;;;5031512;28;20225;-58
2023/01/06 06:47:23;;;;;;;2.97;2.17;;;6.30;99.90;;;;;;5023327;28;20207;-56
2023/01/06 06:49:50;;;;;;;13.17;4.40;;;6.30;99.90;;;;;;5026714;28;20195;-59
2023/01/06 06:52:15;;;;;;;9.37;4.93;;;6.30;99.90;;;;;;5034386;28;20321;-58
2023/01/06 06:54:41;;;;;;;12.07;4.33;;;6.30;99.90;;;;;;5031756;28;20207;-58
2023/01/06 06:57:06;;;;;;;3.67;2.90;;;6.30;99.90;;;;;;5035951;28;20680;-58
2023/01/06 06:59:32;;;;;;;6.70;3.17;;;6.30;99.90;;;;;;5031798;28;20195;-58
2023/01/06 07:01:57;;;;;;;3.47;3.17;;;6.30;99.90;;;;;;5024331;28;20700;-58
2023/01/06 07:04:23;;;;;;;7.20;2.90;;;6.30;99.90;;;;;;5025952;28;20209;-58
2023/01/06 07:06:48;;;;;;;3.77;2.97;;;6.30;99.90;;;;;;5033075;28;20199;-58
2023/01/06 07:09:14;;;;;;;4.60;3.10;;;6.30;99.90;;;;;;5034648;28;20230;-58
2023/01/06 07:11:39;;;;;;;5.07;3.17;;;6.30;99.90;;;;;;5031716;28;20221;-58
2023/01/06 07:14:05;;;;;;;7.10;3.70;;;6.40;99.90;;;;;;5036200;28;20285;-58
2023/01/06 07:16:30;;;;;;;5.13;3.07;;;6.40;99.90;;;;;;5033692;28;20206;-59
2023/01/06 07:18:56;;;;;;;3.87;3.50;;;6.40;99.90;;;;;;5036099;28;20194;-57
2023/01/06 07:21:21;;;;;;;8.57;3.70;;;6.40;99.90;;;;;;5035919;28;20685;-58
2023/01/06 07:23:46;;;;;;;6.70;3.30;;;6.30;99.90;;;;;;5037360;28;20536;-58
2023/01/06 07:26:14;;;;;;;6.37;4.13;;;6.40;99.90;;;;;;5036026;28;20191;-59
2023/01/06 07:28:39;;;;;;;5.73;3.43;;;6.40;99.90;;;;;;5037294;28;20207;-59
2023/01/06 07:31:05;;;;;;;6.73;4.17;;;6.40;99.90;;;;;;5035706;28;20290;-57
2023/01/06 07:33:30;;;;;;;7.50;3.97;;;6.40;99.90;;;;;;5039507;28;20214;-60
2023/01/06 07:35:56;;;;;;;6.60;4.17;;;6.40;99.90;;;;;;5039708;28;20555;-59
2023/01/06 07:38:22;;;;;;;6.53;4.57;;;6.50;99.90;;;;;;5039861;28;20601;-59
2023/01/06 07:40:48;;;;;;;8.50;4.90;;;6.50;99.90;;;;;;5039490;28;20223;-58
2023/01/06 07:43:13;;;;;;;9.23;5.13;;;6.50;99.90;;;;;;5037854;28;20207;-58
2023/01/06 07:45:39;;;;;;;7.10;4.73;;;6.50;99.90;;;;;;5039756;28;20433;-56
2023/01/06 07:48:04;;;;;;;10.10;5.43;;;6.60;99.90;;;;;;5039687;28;20194;-59
2023/01/06 07:50:31;;;;;;;9.50;5.30;;;6.60;99.90;;;;;;5039184;28;20565;-58
2023/01/06 07:52:58;;;;;;;13.77;8.03;;;6.60;99.90;;;;;;5039078;28;20602;-58
2023/01/06 07:55:24;;;;;;;9.13;4.80;;;6.60;99.90;;;;;;5037851;28;20230;-60
2023/01/06 07:57:49;;;;;;;10.03;6.90;;;6.70;99.90;;;;;;5025186;28;20221;-59
2023/01/06 08:00:15;;;;;;;9.63;6.00;;;6.70;99.90;;;;;;5039240;28;20685;-58
2023/01/06 08:02:40;;;;;;;8.23;5.87;;;6.80;99.90;;;;;;5039353;28;20313;-57
2023/01/06 08:05:06;;;;;;;7.50;4.70;;;6.80;99.90;;;;;;5039433;28;20715;-57
2023/01/06 08:07:32;;;;;;;12.17;5.60;;;6.80;99.90;;;;;;5038969;28;20198;-58
2023/01/06 08:09:57;;;;;;;6.10;4.60;;;6.90;99.90;;;;;;5037445;28;20203;-58
2023/01/06 08:12:23;;;;;;;6.47;5.83;;;6.90;99.90;;;;;;5038928;28;20298;-58
2023/01/06 08:14:48;;;;;;;9.23;6.30;;;6.90;99.90;;;;;;5038957;28;20661;-58
2023/01/06 08:17:14;;;;;;;15.87;9.63;;;7.00;99.90;;;;;;5038819;28;20211;-58
2023/01/06 08:19:39;;;;;;;10.47;6.77;;;7.00;99.90;;;;;;5038558;28;20202;-58
2023/01/06 08:22:05;;;;;;;10.97;5.37;;;7.00;99.90;;;;;;5038459;28;20214;-58
2023/01/06 08:24:31;;;;;;;11.60;5.90;;;7.10;99.90;;;;;;5036786;28;20213;-59
2023/01/06 08:26:57;;;;;;;7.80;5.07;;;7.10;99.90;;;;;;5039233;28;20194;-58
2023/01/06 08:29:23;;;;;;;8.97;6.03;;;7.10;99.90;;;;;;5038697;28;20511;-59
2023/01/06 08:31:49;;;;;;;10.77;6.03;;;7.10;99.90;;;;;;5038722;28;20272;-59
2023/01/06 08:34:14;;;;;;;8.70;5.63;;;7.20;99.90;;;;;;5038219;28;20210;-59
2023/01/06 08:36:43;;;;;;;11.37;7.33;;;7.20;99.90;;;;;;5036951;28;20202;-59
2023/01/06 08:39:09;;;;;;;8.63;6.33;;;7.20;99.90;;;;;;5038645;28;20202;-59
2023/01/06 08:41:35;;;;;;;7.97;5.60;;;7.20;99.90;;;;;;5038712;28;20739;-58
2023/01/06 08:44:00;;;;;;;12.00;6.43;;;7.30;99.90;;;;;;5038812;28;20187;-59
2023/01/06 08:46:26;;;;;;;10.73;7.90;;;7.30;99.90;;;;;;5038634;28;20615;-57
2023/01/06 08:48:51;;;;;;;10.23;7.73;;;7.30;99.90;;;;;;5038576;28;20244;-57
2023/01/06 08:51:19;;;;;;;11.33;6.23;;;7.40;99.90;;;;;;5036783;28;20202;-57
2023/01/06 08:53:46;;;;;;;7.10;5.43;;;7.40;99.90;;;;;;5038842;28;20662;-58
2023/01/06 08:56:23;;;;;;;11.03;7.47;;;7.40;99.90;;;;;;5025911;28;20215;-58
2023/01/06 08:59:00;;;;;;;10.20;7.10;;;7.50;99.90;;;;;;5016881;28;20206;-58
2023/01/06 09:01:28;;;;;;;15.73;8.83;;;7.50;99.90;;;;;;5014431;28;20215;-58
2023/01/06 09:03:54;;;;;;;12.40;7.80;;;7.50;99.90;;;;;;5016148;28;20206;-60
2023/01/06 09:06:20;;;;;;;15.57;7.53;;;7.50;99.90;;;;;;5034432;28;20195;-62
2023/01/06 09:08:47;;;;;;;10.67;8.50;;;7.60;99.90;;;;;;5018301;28;20207;-61
2023/01/06 09:11:14;;;;;;;9.83;7.53;;;7.60;99.90;;;;;;5037568;28;20210;-61
2023/01/06 09:13:39;;;;;;;10.67;7.80;;;7.60;99.90;;;;;;5037217;28;20560;-61
2023/01/06 09:16:07;;;;;;;8.87;7.10;;;7.70;99.90;;;;;;5032701;28;20198;-61
2023/01/06 09:18:33;;;;;;;9.60;7.60;;;7.70;99.90;;;;;;5035667;28;20206;-61
2023/01/06 09:20:58;;;;;;;12.07;7.43;;;7.80;99.90;;;;;;5027416;28;20217;-60
2023/01/06 09:23:24;;;;;;;13.53;8.07;;;7.80;99.90;;;;;;5039649;28;20229;-77
2023/01/06 09:25:49;;;;;;;9.90;7.33;;;7.80;99.90;;;;;;5037361;28;20340;-55
2023/01/06 09:28:15;;;;;;;12.93;8.00;;;8.00;99.90;;;;;;5037462;28;20187;-56
2023/01/06 09:30:40;;;;;;;10.23;8.17;;;8.10;99.90;;;;;;5037107;28;20602;-57
2023/01/06 09:33:06;;;;;;;10.07;8.07;;;8.20;99.90;;;;;;5023390;28;20223;-57
2023/01/06 09:35:32;;;;;;;10.53;8.93;;;8.30;99.90;;;;;;5028809;28;20300;-56
2023/01/06 09:37:58;;;;;;;18.17;9.43;;;8.40;99.90;;;;;;5034628;28;20207;-57
2023/01/06 09:40:30;;;;;;;13.23;9.30;;;8.50;99.90;;;;;;5011091;28;20284;-56
2023/01/06 09:43:14;;;;;;;12.03;8.80;;;8.60;99.90;;;;;;5010233;28;20226;-55
2023/01/06 09:45:52;;;;;;;12.27;8.73;;;8.60;99.90;;;;;;5014256;28;20233;-57
2023/01/06 09:48:24;;;;;;;9.63;8.50;;;8.70;99.90;;;;;;5013882;28;20210;-55
2023/01/06 09:50:54;;;;;;;9.50;8.53;;;8.70;99.90;;;;;;5036867;28;20628;-57
2023/01/06 09:53:51;;;;;;;13.37;7.73;;;8.70;99.90;;;;;;5024325;28;20620;-57
2023/01/06 09:56:21;;;;;;;12.03;8.90;;;8.70;99.90;;;;;;5000467;28;20725;-57
2023/01/06 09:59:07;;;;;;;12.67;7.93;;;8.70;99.90;;;;;;5012295;28;20201;-56
2023/01/06 10:01:43;;;;;;;9.13;7.03;;;8.80;99.90;;;;;;5009395;28;20682;-58
2023/01/06 10:04:16;;;;;;;8.23;7.17;;;8.90;99.90;;;;;;5014282;28;20590;-58
2023/01/06 10:06:58;;;;;;;11.80;8.67;;;8.90;99.90;;;;;;5008615;28;20205;-58
2023/01/06 10:09:37;;;;;;;12.83;7.90;;;9.00;99.90;;;;;;5007556;28;20205;-56
2023/01/06 10:12:44;;;;;;;13.40;9.30;;;9.10;99.90;;;;;;5015599;28;20195;-57
2023/01/06 10:15:24;;;;;;;12.00;7.27;;;9.10;99.90;;;;;;5020368;28;20263;-56
2023/01/06 10:18:27;;;;;;;8.37;6.63;;;9.10;99.90;;;;;;5014732;28;20201;-55
2023/01/06 10:21:20;;;;;;;10.93;8.30;;;9.10;99.90;;;;;;5016412;28;20903;-57
2023/01/06 10:23:56;;;;;;;7.93;7.03;;;9.20;99.90;;;;;;5018643;28;20232;-57
2023/01/06 10:26:30;;;;;;;6.80;6.10;;;9.20;99.90;;;;;;5034446;28;20206;-56
2023/01/06 10:29:03;;;;;;;12.90;7.30;;;9.30;99.90;;;;;;5019192;28;20206;-56
2023/01/06 10:31:33;;;;;;;8.77;7.00;;;9.40;99.90;;;;;;5035923;28;20289;-74
2023/01/06 10:34:00;;;;;;;8.57;6.77;;;9.40;99.90;;;;;;5036514;28;20207;-58
2023/01/06 10:36:38;;;;;;;8.47;7.47;;;9.50;99.90;;;;;;5030590;28;20211;-65
2023/01/06 10:39:07;;;;;;;11.13;7.40;;;9.70;99.90;;;;;;5029261;28;20694;-63
2023/01/06 10:41:55;;;;;;;11.90;8.20;;;9.80;99.90;;;;;;5036002;28;20633;-62
2023/01/06 10:44:21;;;;;;;12.17;8.97;;;10.00;99.90;;;;;;5036623;28;20214;-61
2023/01/06 10:46:48;;;;;;;11.30;8.90;;;10.00;99.90;;;;;;5036708;28;20204;-61
2023/01/06 10:49:18;;;;;;;9.70;7.43;;;9.90;99.90;;;;;;5034465;28;20197;-64
2023/01/06 10:51:56;;;;;;;11.60;7.97;;;9.70;99.90;;;;;;5023341;28;20208;-62
2023/01/06 10:54:26;;;;;;;9.37;8.47;;;9.70;99.90;;;;;;5007145;28;20256;-62
2023/01/06 10:56:59;;;;;;;9.97;7.63;;;9.60;99.90;;;;;;5006329;28;20896;-61
2023/01/06 10:59:25;;;;;;;9.53;8.53;;;9.60;99.90;;;;;;5017135;28;20282;-62
2023/01/06 11:01:55;;;;;;;14.90;9.77;;;9.60;99.90;;;;;;5013887;28;20217;-62
2023/01/06 11:04:23;;;;;;;11.03;6.73;;;9.50;99.90;;;;;;5015986;28;20208;-64
2023/01/06 11:06:56;;;;;;;13.07;8.90;;;9.50;99.90;;;;;;5011589;28;20196;-62
2023/01/06 11:09:24;;;;;;;9.80;7.90;;;9.40;99.90;;;;;;5009932;28;20206;-62
2023/01/06 11:11:51;;;;;;;11.27;8.30;;;9.40;99.90;;;;;;5010662;28;20223;-63
2023/01/06 11:14:20;;;;;;;9.73;7.50;;;9.30;99.90;;;;;;5013475;28;20294;-62
2023/01/06 11:17:08;;;;;;;9.23;8.27;;;9.20;99.90;;;;;;5022708;28;20660;-64
2023/01/06 11:19:42;;;;;;;9.37;8.37;;;9.20;99.90;;;;;;5008968;28;20199;-64
2023/01/06 11:22:31;;;;;;;9.73;7.97;;;9.10;99.90;;;;;;5018114;28;20645;-62
2023/01/06 11:24:58;;;;;;;12.23;9.03;;;9.00;99.90;;;;;;5015283;28;20206;-62
2023/01/06 11:27:23;;;;;;;10.00;8.77;;;9.10;99.90;;;;;;5039428;28;20691;-63
2023/01/06 11:29:49;;;;;;;12.43;9.50;;;9.10;99.90;;;;;;5040044;28;20278;-61
2023/01/06 11:32:18;;;;;;;10.80;8.97;;;9.10;99.90;;;;;;5039831;28;20221;-63
2023/01/06 11:35:00;;;;;;;12.17;9.37;;;9.00;99.90;;;;;;5035030;28;20196;-76
2023/01/06 11:37:40;;;;;;;12.00;9.20;;;9.00;99.90;;;;;;5030215;28;20557;-56
2023/01/06 11:40:26;;;;;;;14.67;9.37;;;9.10;99.90;;;;;;5026075;28;20595;-57
2023/01/06 11:42:55;;;;;;;14.50;8.90;;;9.30;99.90;;;;;;5028105;28;20681;-56
2023/01/06 11:45:34;;;;;;;11.07;8.87;;;9.40;99.90;;;;;;5031008;28;20255;-57
2023/01/06 11:48:01;;;;;;;12.00;8.63;;;9.40;99.90;;;;;;5008857;28;20197;-56
2023/01/06 11:50:27;;;;;;;11.47;8.43;;;9.50;99.90;;;;;;5009798;28;20798;-56
2023/01/06 11:53:01;;;;;;;12.17;8.33;;;9.50;99.90;;;;;;5009461;28;20215;-58
2023/01/06 11:55:27;;;;;;;8.10;7.30;;;9.60;99.90;;;;;;5018107;28;20745;-55
2023/01/06 11:58:02;;;;;;;10.37;8.30;;;9.60;99.90;;;;;;5011964;28;20639;-58
2023/01/06 12:00:55;;;;;;;9.20;7.20;;;9.70;99.90;;;;;;5010983;28;20320;-58
2023/01/06 12:03:34;;;;;;;13.43;8.63;;;9.80;99.90;;;;;;5024810;28;20217;-58
2023/01/06 12:06:12;;;;;;;9.40;7.73;;;10.00;99.90;;;;;;5010499;28;20261;-57
2023/01/06 12:08:57;;;;;;;10.90;6.43;;;10.10;99.90;;;;;;5016624;28;20623;-57
2023/01/06 12:11:44;;;;;;;8.73;6.93;;;10.20;99.90;;;;;;5024414;28;20385;-57
2023/01/06 12:14:22;;;;;;;7.47;5.63;;;10.40;99.90;;;;;;5027234;28;20684;-56
2023/01/06 12:17:06;;;;;;;7.40;6.33;;;10.40;99.90;;;;;;5037656;28;20695;-55
2023/01/06 12:19:46;;;;;;;7.37;5.30;;;10.50;99.90;;;;;;5038619;28;20690;-56
2023/01/06 12:22:32;;;;;;;5.37;4.43;;;10.60;99.90;;;;;;5038603;28;20264;-56
2023/01/06 12:25:00;;;;;;;7.83;4.90;;;10.60;99.90;;;;;;5024271;28;21093;-56
2023/01/06 12:27:41;;;;;;;6.03;3.90;;;10.70;99.90;;;;;;5033835;28;20220;-65
2023/01/06 12:30:16;;;;;;;5.77;4.33;;;10.70;99.90;;;;;;5011619;28;20200;-65
2023/01/06 12:32:45;;;;;;;9.13;4.43;;;10.60;99.90;;;;;;5008873;28;20207;-64
2023/01/06 12:35:18;;;;;;;4.90;4.40;;;10.50;99.90;;;;;;5019157;28;20610;-65
2023/01/06 12:37:55;;;;;;;5.33;4.13;;;10.40;99.90;;;;;;5017152;28;20207;-65
2023/01/06 12:40:32;;;;;;;6.33;3.97;;;10.30;99.90;;;;;;5007310;28;20327;-65
2023/01/06 12:43:20;;;;;;;4.77;4.30;;;10.30;99.90;;;;;;5009670;28;20230;-64
2023/01/06 12:46:16;;;;;;;5.27;3.87;;;10.20;99.90;;;;;;5017403;28;20224;-64
2023/01/06 12:49:19;;;;;;;4.60;3.53;;;10.20;99.90;;;;;;5016109;28;20245;-63
2023/01/06 12:51:53;;;;;;;5.27;3.83;;;10.30;99.90;;;;;;5028870;28;20200;-65
2023/01/06 12:54:31;;;;;;;4.93;4.07;;;10.30;99.90;;;;;;5023624;28;20706;-65
2023/01/06 12:57:24;;;;;;;4.20;3.10;;;10.30;99.90;;;;;;5023529;28;20745;-64
2023/01/06 13:00:02;;;;;;;4.03;3.43;;;10.30;99.90;;;;;;5024951;28;20283;-63
2023/01/06 13:02:55;;;;;;;2.47;2.27;;;10.40;99.90;;;;;;5037430;28;20211;-63
2023/01/06 13:05:49;;;;;;;4.17;2.70;;;10.30;99.90;;;;;;5037287;28;20227;-65
2023/01/06 13:08:14;;;;;;;2.17;1.93;;;10.30;99.90;;;;;;5035410;28;20429;-64
2023/01/06 13:10:55;;;;;;;2.70;1.97;;;10.30;99.90;;;;;;5010358;28;20198;-65
2023/01/06 13:13:54;;;;;;;2.93;2.27;;;10.40;99.90;;;;;;5009831;28;20201;-64
2023/01/06 13:16:30;;;;;;;3.27;2.10;;;10.40;99.90;;;;;;5008459;28;20204;-63